Estaciones Metar próximas

 

LELL - Sabadell, Spain
Distancia a la estación: E 18km
Actualizado: 03/03/2021 09:00
Muy nuboso
Muy nuboso
 Viento del ONO
Viento: ONO 4 km/h
Temperatura: 10°C
Rocío: 9°C
Humedad: 94%
Barómetro: 1031 hPa
Nubes: Muy nuboso
Visibilidad: 6 km
Detalle Nubes: Nubes dispersas 305 m
Parcialmente nuboso 610 m
Muy nuboso 1524 m
2021/03/03 08:00 LELL 030800Z 29002KT 6000 FEW010 SCT020 BKN050 10/09 Q1031
LEBL - Barcelona Airpor, Spain
Distancia a la estación: SSE 33km
Actualizado: 03/03/2021 09:00
Parcialmente nuboso
Parcialmente nuboso
 Viento del NNO
Viento: NNO 7 km/h
Temperatura: 12°C
Rocío: 9°C
Humedad: 82%
Barómetro: 1031 hPa
Nubes: Parcialmente nuboso
Visibilidad: 10 km
Detalle Nubes: Nubes dispersas 305 m
Parcialmente nuboso 610 m
2021/03/03 08:00 LEBL 030800Z 33004KT 9999 FEW010 SCT020 12/09 Q1031 NOSIG
LERS - Reus (civ/Mil), Spain
Distancia a la estación: SO 75km
Actualizado: 03/03/2021 09:00
Muy nuboso
Muy nuboso
 Viento del varies
Viento: varies 4 km/h
Temperatura: 11°C
Rocío: 9°C
Humedad: 88%
Barómetro: 1031 hPa
Nubes: Muy nuboso
Visibilidad: 7 km
Detalle Nubes: Muy nuboso 396 m
2021/03/03 08:00 LERS 030800Z VRB02KT 7000 BKN013 11/09 Q1031
 
LEGE - Gerona/Costa Bra, Spain
Distancia a la estación: ENE 83km
Actualizado: 03/03/2021 09:00
Nubes dispersas
Nubes dispersas
 Viento del varies
Viento: varies 2 km/h
Temperatura: 9°C
Rocío: 8°C
Humedad: 94%
Barómetro: 1031 hPa
Nubes: Nubes dispersas
Visibilidad: 8 km
Detalle Nubes: Nubes dispersas 701 m
2021/03/03 08:00 LEGE 030800Z VRB01KT 8000 FEW023 09/08 Q1031
LFMP - Perpignan/Rivesa, France
Distancia a la estación: NNE 155km
Actualizado: 03/03/2021 09:00
Muy nuboso
Muy nuboso
 Viento del NNE
Viento: NNE 7 km/h
Temperatura: 10°C
Sensación Térmica: 9°C
Rocío: 8°C
Humedad: 88%
Barómetro: 1031 hPa
Nubes: Muy nuboso
Visibilidad: 10 km
Detalle Nubes: Nubes dispersas 610 m
Muy nuboso 945 m
2021/03/03 08:00 LFMP 030800Z AUTO 02004KT 9999 FEW020 BKN031 10/08 Q1031 BECMG BKN012 BKN025
LFMK - Carcassonne/Salv, France
Distancia a la estación: N 191km
Actualizado: 03/03/2021 09:00
Nubes dispersas
Nubes dispersas
 Viento del E
Viento: E 6 km/h
Temperatura: 9°C
Rocío: 5°C
Humedad: 76%
Barómetro: 1031 hPa
Nubes: Nubes dispersas
Visibilidad: 10 km
Detalle Nubes: Nubes dispersas 1006 m
2021/03/03 08:00 LFMK 030800Z AUTO 10003KT 070V150 9999 FEW033 09/05 Q1031 TEMPO 3000 BR OVC008
 
LEHC - Huesca-Pirineos, Spain
Distancia a la estación: ONO 193km
Actualizado: 03/03/2021 09:00
Parcialmente nuboso
Parcialmente nuboso
 Viento del N
Viento: N 4 km/h
Temperatura: 7°C
Rocío: 6°C
Humedad: 93%
Barómetro: 1030 hPa
Nubes: Parcialmente nuboso
Visibilidad: 9 km
2021/03/03 08:00 LEHC 030800Z 01002KT 9000 NSC 07/06 Q1030
LFMU - Beziers/Vias, France
Distancia a la estación: NNE 232km
Actualizado: 03/03/2021 09:00
Despejado
Despejado
 Viento del NNE
Viento: NNE 9 km/h
Temperatura: 8°C
Sensación Térmica: 6°C
Rocío: 4°C
Humedad: 76%
Barómetro: 1032 hPa
Resumen: Despejado
Visibilidad: greater than 10 km
2021/03/03 08:00 LFMU 030800Z AUTO 02005KT CAVOK 08/04 Q1032 NOSIG
LEPA - Palma De Mallorc, Spain
Distancia a la estación: SSE 233km
Actualizado: 03/03/2021 09:00
Parcialmente nuboso
Parcialmente nuboso
 Viento del ENE
Viento: ENE 11 km/h
Temperatura: 14°C
Rocío: 11°C
Humedad: 82%
Barómetro: 1029 hPa
Nubes: Parcialmente nuboso
Visibilidad: 7 km
Detalle Nubes: Nubes dispersas 457 m
Parcialmente nuboso 1097 m
2021/03/03 08:00 LEPA 030800Z 06006KT 7000 FEW015 SCT036 14/11 Q1029 NOSIG
 
LFBO - Toulouse/Blagnac, France
Distancia a la estación: N 236km
Actualizado: 03/03/2021 09:00
Despejado
Despejado
 Viento del SE
Viento: SE 15 km/h
Temperatura: 10°C
Sensación Térmica: 8°C
Rocío: 7°C
Humedad: 82%
Barómetro: 1030 hPa
Resumen: Despejado
Visibilidad: greater than 10 km
2021/03/03 08:00 LFBO 030800Z AUTO 14008KT CAVOK 10/07 Q1030 NOSIG
LFBT - Tarbes/Ossun, France
Distancia a la estación: NO 239km
Actualizado: 03/03/2021 09:00
Parcialmente nuboso
Parcialmente nuboso
 Viento del SSE
Viento: SSE 6 km/h
Temperatura: 8°C
Rocío: 7°C
Humedad: 93%
Barómetro: 1029 hPa
Nubes: Parcialmente nuboso
Visibilidad: 9 km
2021/03/03 08:00 LFBT 030800Z AUTO 16003KT 9000 NSC 08/07 Q1029 NOSIG
LEZG - Zaragoza (mil/Ci, Spain
Distancia a la estación: O 242km
Actualizado: 03/03/2021 09:00
Mist, Cubierto
Mist, Cubierto
 Viento del calm
Viento: Calma
Temperatura: 10°C
Rocío: 8°C
Humedad: 88%
Barómetro: 1031 hPa
Resumen: Mist
Nubes: Cubierto
Visibilidad: 4 km
Detalle Nubes: Cubierto 366 m
2021/03/03 08:00 LEZG 030800Z 00000KT 4000 BR OVC012 10/08 Q1031